Finley, Washington
Current Conditions -  °F | °C
As of 11:53 AM on Sunday 25 Jan 2015 (Local Time) from KPSC Reporting Station
Haze Haze  
Wind Chill: 38°   Ceiling: 300
Heat Index: 38°   Visibility: 5mi
Dew Point: 38°   Wind: 0mph
Humidity: 100%   Direction: NA
Pressure: 30.27"   Gusts: NA
Location:  46.2117°N, 119.173°W
Report Text: KPSC 251953Z 00000KT 5SM BR OVC003 03/03 A3027 RMK AO2 SLP254 T00330033
Loading
Personal Weather Stations






























Interactive Weather Map New forecast layout! Learn more

10-Day Weather Forecast

Advertisements
Track Severe Weather on mobile